createdAt,value
2023-05-21T11:50:14.249Z,4.45
2023-05-21T11:52:43.821Z,4.65
2023-05-21T11:55:32.462Z,3.90
2023-05-21T11:58:02.594Z,4.45
2023-05-21T12:00:32.331Z,4.80
2023-05-21T12:03:20.978Z,4.93
2023-05-21T12:05:52.901Z,4.07
2023-05-21T12:08:25.984Z,4.65
2023-05-21T12:11:00.471Z,3.28
2023-05-21T12:13:30.229Z,3.63
2023-05-21T12:15:59.565Z,3.80
2023-05-21T12:18:47.383Z,4.30
2023-05-21T12:21:18.758Z,4.10
2023-05-21T12:24:05.481Z,3.40
2023-05-21T12:26:35.945Z,3.40
2023-05-21T12:29:23.921Z,3.63
2023-05-21T12:31:53.189Z,3.20
2023-05-21T12:34:40.753Z,3.00
2023-05-21T12:59:58.632Z,3.53
2023-05-21T13:02:41.161Z,3.22
2023-05-21T13:02:48.011Z,3.42
2023-05-21T13:05:36.418Z,3.47
2023-05-21T13:08:05.728Z,3.33
2023-05-21T13:10:35.288Z,3.22
2023-05-21T13:13:04.678Z,4.07
2023-05-21T13:15:35.730Z,3.67
2023-05-21T13:18:07.293Z,3.47
2023-05-21T13:20:36.772Z,3.03
2023-05-21T13:23:08.315Z,3.78
2023-05-21T13:25:39.065Z,3.53
2023-05-21T13:28:10.786Z,4.15
2023-05-21T13:30:59.645Z,3.63
2023-05-21T13:33:29.127Z,4.40
2023-05-21T13:35:58.485Z,3.97
2023-05-21T13:38:46.162Z,3.78
2023-05-21T13:41:15.648Z,3.50
2023-05-21T13:44:02.296Z,4.10
2023-05-21T13:46:51.654Z,3.70
2023-05-21T13:49:21.523Z,3.60
2023-05-21T13:52:09.699Z,4.40
2023-05-21T13:54:38.972Z,4.03
2023-05-21T13:57:43.070Z,4.25
2023-05-21T14:00:16.313Z,4.50
2023-05-21T14:02:48.648Z,5.15
2023-05-21T14:05:18.213Z,4.32
2023-05-21T14:08:05.971Z,4.72
2023-05-21T14:10:35.875Z,4.63
2023-05-21T14:13:18.335Z,6.57
2023-05-21T14:16:08.027Z,4.65
2023-05-21T14:18:38.834Z,5.25
2023-05-21T14:21:08.358Z,5.40
2023-05-21T14:23:37.751Z,5.57
2023-05-21T14:26:10.008Z,6.13
2023-05-21T14:28:39.177Z,7.00
2023-05-21T14:31:26.976Z,6.97
2023-05-21T14:33:57.770Z,6.95
2023-05-21T14:36:27.000Z,7.13
2023-05-21T14:39:13.424Z,7.80
2023-05-21T14:41:43.779Z,9.10
2023-05-21T14:44:13.007Z,12.60
2023-05-21T14:46:42.308Z,14.32
2023-05-21T14:49:31.067Z,8.05
2023-05-21T14:52:35.139Z,9.70
2023-05-21T14:55:04.398Z,13.27
2023-05-21T14:57:33.582Z,12.50
2023-05-21T15:00:20.752Z,37.75
2023-05-21T15:02:50.015Z,23.08
2023-05-21T15:05:20.878Z,14.98
2023-05-21T15:08:10.006Z,19.77
2023-05-21T15:10:39.224Z,16.67
2023-05-21T15:13:11.152Z,23.55
2023-05-21T15:15:58.639Z,40.53
2023-05-21T15:18:27.717Z,49.15
2023-05-21T15:21:19.173Z,50.50
2023-05-21T15:23:48.450Z,71.43
2023-05-21T15:26:17.691Z,71.63
2023-05-21T15:28:46.994Z,84.38
2023-05-21T15:31:16.641Z,81.72
2023-05-21T15:34:41.078Z,85.60
2023-05-21T15:37:11.872Z,83.40
2023-05-21T15:39:41.159Z,79.90
2023-05-21T15:42:10.321Z,74.22
2023-05-21T15:44:39.777Z,59.97
2023-05-21T15:47:09.350Z,64.38
2023-05-21T15:49:38.592Z,62.95
2023-05-21T15:52:08.700Z,70.93
2023-05-21T15:54:57.878Z,71.75
2023-05-21T15:57:27.101Z,62.30
2023-05-21T15:59:57.363Z,54.40
2023-05-21T16:02:26.765Z,52.63
2023-05-21T16:04:56.013Z,58.72
2023-05-21T16:07:43.119Z,50.40
2023-05-21T16:10:14.070Z,52.30
2023-05-21T16:12:43.578Z,50.17
2023-05-21T16:15:13.134Z,51.13
2023-05-21T16:17:42.319Z,54.42
2023-05-21T16:20:12.072Z,52.25
2023-05-21T16:22:42.202Z,50.50
2023-05-21T16:25:13.291Z,48.92
2023-05-21T16:27:42.536Z,46.35
2023-05-21T16:30:14.183Z,45.17
2023-05-21T16:32:43.509Z,45.53
2023-05-21T16:35:12.823Z,46.65
2023-05-21T16:37:41.980Z,46.95
2023-05-21T16:40:29.953Z,44.45
2023-05-21T16:43:02.151Z,44.10
2023-05-21T16:45:40.770Z,42.92
2023-05-21T16:48:27.843Z,41.72
2023-05-21T16:50:58.804Z,40.17
2023-05-21T16:53:28.060Z,38.95
2023-05-21T16:55:57.305Z,42.28
2023-05-21T16:58:28.716Z,40.33
2023-05-21T17:00:58.485Z,36.67
2023-05-21T17:03:28.231Z,35.25
2023-05-21T17:06:15.750Z,33.33
2023-05-21T17:09:03.799Z,31.85
2023-05-21T17:11:33.362Z,30.27
2023-05-21T17:14:04.215Z,29.40
2023-05-21T17:16:33.544Z,29.30
2023-05-21T17:19:02.985Z,30.38
2023-05-21T17:21:32.780Z,29.05
2023-05-21T17:24:02.256Z,28.67
2023-05-21T17:26:31.538Z,28.63
2023-05-21T17:29:00.826Z,27.48
2023-05-21T17:31:49.959Z,26.75
2023-05-21T17:34:20.043Z,27.58
2023-05-21T17:36:49.271Z,26.38
2023-05-21T17:39:18.577Z,25.90
2023-05-21T17:41:48.136Z,27.90
2023-05-21T17:44:18.050Z,30.35
2023-05-21T17:46:47.675Z,27.23
2023-05-21T17:49:18.801Z,27.10
2023-05-21T17:51:48.405Z,28.23
2023-05-21T17:54:36.167Z,28.90
2023-05-21T17:57:05.545Z,28.08
2023-05-21T17:59:34.817Z,29.33
2023-05-21T18:02:04.303Z,31.55
2023-05-21T18:04:35.319Z,33.20
2023-05-21T18:07:04.646Z,32.80
2023-05-21T18:09:33.842Z,34.65
2023-05-21T18:12:20.970Z,32.17
2023-05-21T18:15:25.628Z,31.45
2023-05-21T18:17:54.944Z,32.30
2023-05-21T18:20:25.761Z,33.15
2023-05-21T18:22:55.036Z,33.08
2023-05-21T18:25:41.678Z,33.90
2023-05-21T18:28:28.496Z,31.73
2023-05-21T18:31:16.955Z,29.45
2023-05-21T18:34:03.252Z,28.17
2023-05-21T18:36:39.097Z,28.88
2023-05-21T18:41:37.936Z,27.40
2023-05-21T18:44:07.726Z,26.52
2023-05-21T18:46:38.315Z,25.73
2023-05-21T18:49:07.745Z,26.58
2023-05-21T18:51:39.179Z,23.63
2023-05-21T18:54:27.169Z,23.67
2023-05-21T18:57:14.632Z,21.83
2023-05-21T19:00:00.990Z,22.42
2023-05-21T19:02:30.432Z,21.35
2023-05-21T19:05:00.000Z,21.77
2023-05-21T19:07:47.824Z,20.60
2023-05-21T19:10:34.147Z,20.33
2023-05-21T19:13:20.807Z,19.33
2023-05-21T19:15:50.108Z,18.80
2023-05-21T19:18:37.530Z,17.88
2023-05-21T19:21:06.826Z,17.75
2023-05-21T19:23:48.787Z,19.85
2023-05-21T19:26:23.124Z,21.88
2023-05-21T19:28:53.984Z,20.42
2023-05-21T19:31:24.247Z,17.77
2023-05-21T19:33:53.640Z,19.23
2023-05-21T19:36:23.363Z,20.00
2023-05-21T19:39:12.693Z,18.83
2023-05-21T19:41:42.458Z,18.10
2023-05-21T19:44:29.759Z,18.95
2023-05-21T19:46:59.054Z,17.33
2023-05-21T19:49:45.152Z,20.65
2023-05-21T19:52:32.821Z,16.30
2023-05-21T19:55:21.894Z,16.92
2023-05-21T19:57:51.258Z,16.75
2023-05-21T20:00:39.689Z,15.48
2023-05-21T20:03:09.814Z,15.35
2023-05-21T20:05:39.986Z,15.38
2023-05-21T20:08:09.297Z,14.27
2023-05-21T20:10:41.008Z,14.23
2023-05-21T20:13:27.760Z,13.75
2023-05-21T20:15:56.975Z,14.73
2023-05-21T20:18:26.894Z,14.50
2023-05-21T20:21:14.219Z,14.38
2023-05-21T20:23:43.428Z,13.88
2023-05-21T20:26:14.218Z,13.57
2023-05-21T20:28:43.601Z,14.05
2023-05-21T20:31:12.899Z,13.20
2023-05-21T20:33:42.631Z,13.13
2023-05-21T20:36:16.208Z,14.32
2023-05-21T20:38:46.032Z,14.32
2023-05-21T20:41:16.814Z,13.32
2023-05-21T20:43:46.485Z,14.95
2023-05-21T20:46:32.433Z,14.45
2023-05-21T20:49:36.910Z,13.95
2023-05-21T20:52:06.624Z,12.73
2023-05-21T20:54:35.892Z,14.25
2023-05-21T20:57:42.150Z,13.60
2023-05-21T21:00:12.623Z,14.48
2023-05-21T21:03:21.990Z,14.18
2023-05-21T21:05:51.422Z,13.57
2023-05-21T21:08:20.575Z,14.85
2023-05-21T21:10:49.798Z,13.73
2023-05-21T21:13:20.629Z,12.48
2023-05-21T21:16:09.041Z,13.27
2023-05-21T21:19:15.011Z,12.90
2023-05-21T21:21:44.280Z,12.95
2023-05-21T21:24:13.538Z,13.77
2023-05-21T21:26:42.695Z,12.32
2023-05-21T21:29:30.378Z,13.32
2023-05-21T21:31:59.778Z,13.45
2023-05-21T21:34:47.285Z,13.95
2023-05-21T21:37:34.585Z,13.85
2023-05-21T21:40:22.267Z,13.65
2023-05-21T21:42:51.567Z,12.93
2023-05-21T21:45:22.288Z,13.80
2023-05-21T21:47:51.536Z,14.45
2023-05-21T21:50:20.852Z,13.13
2023-05-21T21:52:50.025Z,13.82
2023-05-21T21:55:38.281Z,13.27
2023-05-21T21:58:07.632Z,13.23
2023-05-21T22:00:55.166Z,14.23
2023-05-21T22:03:24.451Z,14.02
2023-05-21T22:05:54.643Z,14.80
2023-05-21T22:08:23.821Z,16.27
2023-05-21T22:11:11.462Z,14.20
2023-05-21T22:13:58.700Z,13.40
2023-05-21T22:16:29.810Z,13.98
2023-05-21T22:18:59.732Z,13.45
2023-05-21T22:21:29.719Z,13.18
2023-05-21T22:23:58.882Z,13.85
2023-05-21T22:26:28.124Z,14.13
2023-05-21T22:28:59.472Z,14.05
2023-05-21T22:31:30.363Z,13.52
2023-05-21T22:34:18.596Z,13.55
2023-05-21T22:36:48.765Z,13.00
2023-05-21T22:39:34.864Z,12.98
2023-05-21T22:42:04.182Z,14.13
2023-05-21T22:44:33.399Z,13.63
2023-05-21T22:47:04.038Z,14.68
2023-05-21T22:49:34.248Z,13.45
2023-05-21T22:52:06.358Z,13.52
2023-05-21T22:54:35.541Z,13.70
2023-05-21T22:57:05.096Z,14.82
2023-05-21T22:59:34.644Z,14.32
2023-05-21T23:02:05.665Z,13.32
2023-05-21T23:04:53.090Z,14.05
2023-05-21T23:07:22.366Z,14.52
2023-05-21T23:09:52.190Z,15.18
2023-05-21T23:12:38.579Z,14.65
2023-05-21T23:15:10.364Z,16.45
2023-05-21T23:17:41.242Z,15.57
2023-05-21T23:20:11.638Z,15.38
2023-05-21T23:22:40.882Z,16.17
2023-05-21T23:25:11.305Z,16.50
2023-05-21T23:27:58.761Z,17.45
2023-05-21T23:30:27.939Z,15.93
2023-05-21T23:32:58.701Z,16.52
2023-05-21T23:35:27.954Z,16.55
2023-05-21T23:37:57.380Z,16.23
2023-05-21T23:40:26.655Z,16.40
2023-05-21T23:42:55.885Z,15.43
2023-05-21T23:45:43.682Z,17.73
2023-05-21T23:48:14.416Z,17.90
2023-05-21T23:50:43.631Z,16.25
2023-05-21T23:53:13.164Z,17.33
2023-05-21T23:56:00.885Z,16.45
2023-05-21T23:58:30.097Z,17.48
